Time;durP1;ratioP1;P1;durP2;ratioP2;P2;SDS_P1;SDS_P2;PMS_P1;PMS_P2;Temp;Humidity;BMP_temperature;BMP_pressure;BME280_temperature;BME280_humidity;BME280_pressure;Samples;Min_cycle;Max_cycle;Signal;HPM_P1;HPM_P2
2022/04/08 00:01:52;;;;;;;8.93;1.77;;;5.70;99.90;;;;;;5016689;28;20057;-41
2022/04/08 00:04:17;;;;;;;10.88;1.95;;;5.60;99.90;;;;;;5029208;28;20135;-42
2022/04/08 00:06:43;;;;;;;3.75;1.20;;;5.70;99.90;;;;;;5030438;28;20046;-42
2022/04/08 00:09:09;;;;;;;6.90;1.30;;;5.60;99.90;;;;;;5026566;28;20075;-42
2022/04/08 00:11:34;;;;;;;8.50;1.63;;;5.60;99.90;;;;;;5028867;28;20057;-40
2022/04/08 00:14:00;;;;;;;2.30;0.73;;;5.50;99.90;;;;;;5012658;28;20049;-41
2022/04/08 00:16:27;;;;;;;5.18;0.90;;;5.50;99.90;;;;;;5024912;28;20206;-41
2022/04/08 00:18:53;;;;;;;6.00;0.80;;;5.40;99.90;;;;;;5005220;28;20119;-41
2022/04/08 00:21:19;;;;;;;7.68;1.30;;;5.40;99.90;;;;;;5031334;28;20412;-41
2022/04/08 00:23:45;;;;;;;7.85;1.40;;;5.30;99.90;;;;;;5009470;28;20070;-40
2022/04/08 00:26:11;;;;;;;9.15;1.20;;;5.30;99.90;;;;;;5020539;28;20056;-41
2022/04/08 00:28:37;;;;;;;7.25;1.67;;;5.20;99.90;;;;;;5040074;28;20681;-41
2022/04/08 00:31:04;;;;;;;11.10;1.67;;;5.10;99.90;;;;;;5040155;28;20539;-42
2022/04/08 00:33:33;;;;;;;11.88;1.65;;;5.20;99.90;;;;;;5021373;28;20491;-42
2022/04/08 00:35:59;;;;;;;6.93;1.10;;;5.10;99.90;;;;;;5031419;28;20138;-42
2022/04/08 00:38:25;;;;;;;9.18;2.05;;;5.00;99.90;;;;;;5022929;28;20160;-41
2022/04/08 00:40:51;;;;;;;8.35;1.77;;;5.00;99.90;;;;;;5020896;28;20068;-42
2022/04/08 00:43:18;;;;;;;5.85;1.13;;;4.90;99.90;;;;;;5033600;28;20052;-41
2022/04/08 00:45:45;;;;;;;10.43;1.92;;;4.80;99.90;;;;;;5020613;28;20536;-42
2022/04/08 00:48:11;;;;;;;7.38;1.88;;;4.70;99.90;;;;;;5020830;28;20055;-41
2022/04/08 00:50:43;;;;;;;7.80;1.70;;;4.60;99.90;;;;;;5020731;28;20137;-41
2022/04/08 00:53:09;;;;;;;7.80;1.60;;;4.50;99.90;;;;;;5001794;28;20508;-41
2022/04/08 00:55:38;;;;;;;9.23;1.38;;;4.50;99.90;;;;;;5020532;28;20049;-41
2022/04/08 00:58:04;;;;;;;5.43;1.50;;;4.50;99.90;;;;;;5002945;28;20045;-41
2022/04/08 01:00:36;;;;;;;10.00;2.33;;;4.50;99.90;;;;;;5020470;28;20057;-41
2022/04/08 01:03:03;;;;;;;13.75;2.13;;;4.50;99.90;;;;;;5002816;28;20433;-41
2022/04/08 01:05:29;;;;;;;7.93;1.75;;;4.50;99.90;;;;;;5021115;28;20045;-42
2022/04/08 01:07:55;;;;;;;10.40;1.58;;;4.50;99.90;;;;;;5021500;28;20208;-40
2022/04/08 01:10:21;;;;;;;9.13;1.60;;;4.50;99.90;;;;;;5022070;28;20453;-41
2022/04/08 01:12:49;;;;;;;10.18;1.83;;;4.50;99.90;;;;;;5025284;28;20071;-41
2022/04/08 01:15:20;;;;;;;10.32;1.95;;;4.50;99.90;;;;;;5020922;28;20882;-42
2022/04/08 01:17:46;;;;;;;9.43;1.73;;;4.50;99.90;;;;;;5020613;28;20076;-41
2022/04/08 01:20:15;;;;;;;8.20;1.58;;;4.50;99.90;;;;;;5019988;28;20536;-43
2022/04/08 01:22:41;;;;;;;10.95;1.90;;;4.50;99.90;;;;;;5020576;28;20045;-41
2022/04/08 01:25:09;;;;;;;9.32;1.90;;;4.50;99.90;;;;;;5020577;28;20080;-41
2022/04/08 01:27:37;;;;;;;11.75;2.78;;;4.50;99.90;;;;;;5002317;28;20053;-41
2022/04/08 01:30:05;;;;;;;12.95;2.58;;;4.50;99.90;;;;;;5019580;28;20049;-41
2022/04/08 01:32:30;;;;;;;13.20;2.10;;;4.50;99.90;;;;;;5019595;28;20440;-41
2022/04/08 01:35:03;;;;;;;13.50;2.10;;;4.50;99.90;;;;;;5019529;28;20494;-41
2022/04/08 01:37:28;;;;;;;12.27;2.60;;;4.40;99.90;;;;;;5019943;28;20470;-41
2022/04/08 01:39:54;;;;;;;10.38;1.70;;;4.40;99.90;;;;;;5019809;28;20089;-41
2022/04/08 01:42:24;;;;;;;16.42;2.83;;;4.40;99.90;;;;;;5019190;28;20049;-42
2022/04/08 01:44:52;;;;;;;13.75;2.00;;;4.30;99.90;;;;;;5032338;28;20049;-41
2022/04/08 01:47:22;;;;;;;14.73;2.33;;;4.40;99.90;;;;;;5031684;28;20087;-41
2022/04/08 01:49:48;;;;;;;14.13;2.05;;;4.30;99.90;;;;;;5025400;28;20091;-41
2022/04/08 01:52:14;;;;;;;10.20;2.78;;;4.30;99.90;;;;;;5039248;28;20087;-41
2022/04/08 01:54:39;;;;;;;11.27;2.30;;;4.30;99.90;;;;;;5025474;28;20528;-42
2022/04/08 01:57:05;;;;;;;11.98;2.42;;;4.30;99.90;;;;;;5038750;28;20333;-41
2022/04/08 01:59:31;;;;;;;20.85;2.70;;;4.30;99.90;;;;;;5025325;28;20160;-41
2022/04/08 02:01:59;;;;;;;14.50;2.20;;;4.20;99.90;;;;;;5014242;28;20151;-41
2022/04/08 02:04:26;;;;;;;18.60;2.92;;;4.20;99.90;;;;;;5028110;28;20063;-42
2022/04/08 02:06:52;;;;;;;23.67;3.55;;;4.20;99.90;;;;;;5021959;28;20080;-41
2022/04/08 02:09:18;;;;;;;16.27;4.15;;;4.20;99.90;;;;;;5027723;28;20166;-42
2022/04/08 02:11:47;;;;;;;17.45;3.83;;;4.20;99.90;;;;;;5018616;28;20460;-41
2022/04/08 02:14:13;;;;;;;14.15;3.50;;;4.20;99.90;;;;;;5020013;28;20385;-41
2022/04/08 02:16:38;;;;;;;15.60;2.90;;;4.30;99.90;;;;;;5014897;28;20339;-41
2022/04/08 02:19:04;;;;;;;18.00;3.13;;;4.40;99.90;;;;;;5033003;28;20052;-41
2022/04/08 02:21:31;;;;;;;13.48;3.22;;;4.40;99.90;;;;;;5020927;28;20068;-43
2022/04/08 02:23:57;;;;;;;12.00;2.30;;;4.40;99.90;;;;;;5025602;28;20040;-41
2022/04/08 02:26:23;;;;;;;13.35;2.53;;;4.40;99.90;;;;;;5039296;28;20131;-46
2022/04/08 02:28:48;;;;;;;9.93;1.90;;;4.50;99.90;;;;;;5019303;28;20050;-41
2022/04/08 02:31:14;;;;;;;13.60;2.10;;;4.50;99.90;;;;;;5023908;28;20041;-42
2022/04/08 02:33:40;;;;;;;17.80;3.38;;;4.40;99.90;;;;;;5019071;28;20053;-41
2022/04/08 02:36:06;;;;;;;11.07;2.13;;;4.40;99.90;;;;;;5019950;28;20119;-41
2022/04/08 02:38:32;;;;;;;12.90;1.98;;;4.50;99.90;;;;;;5038818;28;20049;-41
2022/04/08 02:40:58;;;;;;;15.88;2.45;;;4.60;99.90;;;;;;5036948;28;20088;-41
2022/04/08 02:43:24;;;;;;;15.65;3.35;;;4.60;99.90;;;;;;5013226;28;20064;-41
2022/04/08 02:45:50;;;;;;;14.45;2.53;;;4.60;99.90;;;;;;5022632;28;20049;-41
2022/04/08 02:48:16;;;;;;;15.95;3.10;;;4.70;99.90;;;;;;5028718;28;20423;-41
2022/04/08 02:50:42;;;;;;;12.95;2.85;;;4.60;99.90;;;;;;5040388;28;20603;-41
2022/04/08 02:53:08;;;;;;;16.42;3.92;;;4.60;99.90;;;;;;5028577;28;20057;-41
2022/04/08 02:55:35;;;;;;;17.10;3.75;;;4.60;99.90;;;;;;5030926;28;20749;-41
2022/04/08 02:58:01;;;;;;;15.50;2.72;;;4.60;99.90;;;;;;5016770;28;20120;-41
2022/04/08 03:00:28;;;;;;;13.80;2.70;;;4.60;99.90;;;;;;5022916;28;20065;-41
2022/04/08 03:02:53;;;;;;;15.57;3.10;;;4.60;99.90;;;;;;5010010;28;20044;-41
2022/04/08 03:05:22;;;;;;;13.85;3.70;;;4.50;99.90;;;;;;5044723;28;20068;-41
2022/04/08 03:07:48;;;;;;;14.27;2.75;;;4.60;99.90;;;;;;5022858;28;20049;-43
2022/04/08 03:10:14;;;;;;;17.90;2.55;;;4.60;99.90;;;;;;5022773;28;20071;-41
2022/04/08 03:12:40;;;;;;;13.02;2.78;;;4.70;99.90;;;;;;5022495;28;20160;-42
2022/04/08 03:15:07;;;;;;;17.58;3.13;;;4.80;99.90;;;;;;5023797;28;20384;-42
2022/04/08 03:17:35;;;;;;;18.17;3.17;;;4.80;99.90;;;;;;5029087;28;20376;-42
2022/04/08 03:20:01;;;;;;;18.13;2.80;;;4.80;99.90;;;;;;5009206;28;20641;-41
2022/04/08 03:22:27;;;;;;;20.80;3.03;;;4.80;99.90;;;;;;5022461;28;20049;-41
2022/04/08 03:24:54;;;;;;;16.42;2.83;;;4.80;99.90;;;;;;5004234;28;20053;-41
2022/04/08 03:27:19;;;;;;;17.85;3.00;;;4.80;99.90;;;;;;5022823;28;20045;-42
2022/04/08 03:29:45;;;;;;;12.15;2.42;;;4.80;99.90;;;;;;5024818;28;20049;-43
2022/04/08 03:32:11;;;;;;;9.40;2.15;;;4.70;99.90;;;;;;5024789;28;20053;-42
2022/04/08 03:34:38;;;;;;;6.47;1.40;;;4.70;99.90;;;;;;5017454;28;20088;-43
2022/04/08 03:37:05;;;;;;;7.85;1.48;;;4.60;99.90;;;;;;5031156;28;20084;-43
2022/04/08 03:39:30;;;;;;;3.88;1.60;;;4.60;99.90;;;;;;5029276;28;20103;-41
2022/04/08 03:41:57;;;;;;;7.93;1.60;;;4.60;99.90;;;;;;5032459;28;20526;-41
2022/04/08 03:44:22;;;;;;;8.13;1.67;;;4.50;99.90;;;;;;5033493;28;20075;-41
2022/04/08 03:46:49;;;;;;;7.47;1.52;;;4.30;99.90;;;;;;5036650;28;20558;-41
2022/04/08 03:49:15;;;;;;;6.50;1.80;;;4.20;99.90;;;;;;5008637;28;20060;-43
2022/04/08 03:51:45;;;;;;;3.70;1.38;;;4.10;99.90;;;;;;5033488;28;20053;-41
2022/04/08 03:54:11;;;;;;;7.43;1.30;;;4.10;99.90;;;;;;5034439;28;20049;-41
2022/04/08 03:56:37;;;;;;;10.05;1.60;;;4.00;99.90;;;;;;5006311;28;20095;-40
2022/04/08 03:59:04;;;;;;;7.68;1.73;;;3.90;99.90;;;;;;5035115;28;20053;-41
2022/04/08 04:01:30;;;;;;;3.08;0.95;;;3.90;99.90;;;;;;5040114;28;20061;-41
2022/04/08 04:03:56;;;;;;;6.03;1.42;;;3.90;99.90;;;;;;5041677;28;20041;-41
2022/04/08 04:06:22;;;;;;;6.60;1.25;;;3.70;99.90;;;;;;5034955;28;20095;-42
2022/04/08 04:08:48;;;;;;;8.55;1.33;;;3.70;99.90;;;;;;5036505;28;20040;-41
2022/04/08 04:11:16;;;;;;;8.20;1.58;;;3.50;99.90;;;;;;5040857;28;20045;-41
2022/04/08 04:13:43;;;;;;;9.10;1.25;;;3.50;99.90;;;;;;5039111;28;20598;-41
2022/04/08 04:16:09;;;;;;;8.35;1.70;;;3.40;99.90;;;;;;5007290;28;20499;-41
2022/04/08 04:18:35;;;;;;;9.55;2.33;;;3.30;99.90;;;;;;5027927;28;20848;-41
2022/04/08 04:21:01;;;;;;;6.00;1.50;;;3.30;99.90;;;;;;5040046;28;20055;-41
2022/04/08 04:23:26;;;;;;;13.40;2.28;;;3.20;99.90;;;;;;5027043;28;20049;-41
2022/04/08 04:25:54;;;;;;;9.40;1.60;;;3.30;99.90;;;;;;5033191;28;20493;-41
2022/04/08 04:28:22;;;;;;;10.55;2.20;;;3.30;99.90;;;;;;5011867;28;20115;-41
2022/04/08 04:30:49;;;;;;;9.63;1.60;;;3.30;99.90;;;;;;5015043;28;20093;-41
2022/04/08 04:33:15;;;;;;;11.60;2.35;;;3.30;99.90;;;;;;5033376;28;20411;-42
2022/04/08 04:35:41;;;;;;;9.88;1.88;;;3.40;99.90;;;;;;5030239;28;20091;-42
2022/04/08 04:38:07;;;;;;;7.85;2.35;;;3.40;99.90;;;;;;5024441;28;20049;-41
2022/04/08 04:40:32;;;;;;;7.30;1.88;;;3.50;99.90;;;;;;5031652;28;20084;-40
2022/04/08 04:42:58;;;;;;;9.95;2.30;;;3.50;99.90;;;;;;5029776;28;20104;-41
2022/04/08 04:45:24;;;;;;;7.38;1.63;;;3.60;99.90;;;;;;5032100;28;20057;-40
2022/04/08 04:47:50;;;;;;;10.93;1.98;;;3.70;99.90;;;;;;5022002;28;20524;-41
2022/04/08 04:50:16;;;;;;;9.30;2.28;;;3.80;99.90;;;;;;5020922;28;20456;-41
2022/04/08 04:52:42;;;;;;;10.65;2.30;;;3.80;99.90;;;;;;5020319;28;20126;-42
2022/04/08 04:55:08;;;;;;;8.18;2.08;;;3.90;99.90;;;;;;5020753;28;20049;-41
2022/04/08 04:57:34;;;;;;;8.95;1.98;;;3.90;99.90;;;;;;5002727;28;20061;-41
2022/04/08 05:00:02;;;;;;;4.63;1.80;;;3.90;99.90;;;;;;5001899;28;20467;-40
2022/04/08 05:02:28;;;;;;;5.97;1.90;;;3.90;99.90;;;;;;5020715;28;20602;-41
2022/04/08 05:04:54;;;;;;;5.53;1.70;;;3.80;99.90;;;;;;5027013;28;20049;-41
2022/04/08 05:07:20;;;;;;;6.32;2.05;;;3.80;99.90;;;;;;5025339;28;20045;-41
2022/04/08 05:09:48;;;;;;;4.95;2.17;;;3.70;99.90;;;;;;5013898;28;20060;-42
2022/04/08 05:12:14;;;;;;;5.13;1.77;;;3.60;99.90;;;;;;5033452;28;20591;-40
2022/04/08 05:14:40;;;;;;;5.03;1.80;;;3.50;99.90;;;;;;5028108;28;20051;-41
2022/04/08 05:17:06;;;;;;;7.60;1.90;;;3.50;99.90;;;;;;5022405;28;20055;-41
2022/04/08 05:19:32;;;;;;;5.18;2.17;;;3.50;99.90;;;;;;5027884;28;20048;-40
2022/04/08 05:21:57;;;;;;;5.07;2.30;;;3.50;99.90;;;;;;5030710;28;20158;-42
2022/04/08 05:24:23;;;;;;;7.22;3.10;;;3.50;99.90;;;;;;5020761;28;20049;-41
2022/04/08 05:26:49;;;;;;;6.90;2.40;;;3.60;99.90;;;;;;5022494;28;20049;-41
2022/04/08 05:29:14;;;;;;;5.72;2.45;;;3.70;99.90;;;;;;5030430;28;20404;-42
2022/04/08 05:31:40;;;;;;;4.88;2.03;;;3.80;99.90;;;;;;5021530;28;20400;-41
2022/04/08 05:34:06;;;;;;;8.18;3.20;;;3.90;99.90;;;;;;5027956;28;20087;-41
2022/04/08 05:36:32;;;;;;;6.28;3.15;;;4.30;99.90;;;;;;5025900;28;20482;-41
2022/04/08 05:38:58;;;;;;;5.43;2.28;;;4.70;99.90;;;;;;5019799;28;20089;-42
2022/04/08 05:41:23;;;;;;;4.53;1.98;;;4.80;99.90;;;;;;5024191;28;20114;-41
2022/04/08 05:43:49;;;;;;;2.78;1.42;;;4.80;99.90;;;;;;5032523;28;20142;-40
2022/04/08 05:46:15;;;;;;;4.95;1.63;;;4.70;99.90;;;;;;5026438;28;20052;-41
2022/04/08 05:48:41;;;;;;;4.55;1.60;;;4.60;99.90;;;;;;5020929;28;20045;-41
2022/04/08 05:51:07;;;;;;;5.93;2.05;;;4.50;99.90;;;;;;5006696;28;20098;-42
2022/04/08 05:53:33;;;;;;;4.82;1.88;;;4.40;99.90;;;;;;5035200;28;20061;-41
2022/04/08 05:56:02;;;;;;;6.65;2.03;;;4.40;99.90;;;;;;5011155;28;20049;-43
2022/04/08 05:58:28;;;;;;;4.63;1.88;;;4.30;99.90;;;;;;5033527;28;20056;-41
2022/04/08 06:00:54;;;;;;;5.00;1.90;;;4.30;99.90;;;;;;5033637;28;20877;-41
2022/04/08 06:03:20;;;;;;;6.00;1.80;;;4.30;99.90;;;;;;5010998;28;20484;-43
2022/04/08 06:05:46;;;;;;;6.70;2.58;;;4.30;99.90;;;;;;5033979;28;20573;-40
2022/04/08 06:08:14;;;;;;;7.15;2.13;;;4.50;99.90;;;;;;5019241;28;20053;-40
2022/04/08 06:10:40;;;;;;;7.35;1.83;;;4.70;99.90;;;;;;5017117;28;20069;-41
2022/04/08 06:13:06;;;;;;;6.50;1.92;;;4.90;99.90;;;;;;5021912;28;20060;-42
2022/04/08 06:15:32;;;;;;;3.70;2.42;;;5.10;99.90;;;;;;5039250;28;20036;-41
2022/04/08 06:17:58;;;;;;;2.95;1.60;;;5.50;99.90;;;;;;5040088;28;20036;-41
2022/04/08 06:20:24;;;;;;;4.82;1.80;;;6.20;99.90;;;;;;5038234;28;20096;-41
2022/04/08 06:22:51;;;;;;;3.05;1.40;;;6.20;99.90;;;;;;5039062;28;20047;-41
2022/04/08 06:25:18;;;;;;;4.22;1.63;;;5.90;99.90;;;;;;5040166;28;20049;-41
2022/04/08 06:27:45;;;;;;;5.22;1.60;;;5.70;99.90;;;;;;5040167;28;20530;-41
2022/04/08 06:30:14;;;;;;;3.35;1.45;;;5.60;99.90;;;;;;5038804;28;20081;-41
2022/04/08 06:32:43;;;;;;;3.92;1.80;;;5.60;99.90;;;;;;5039031;28;20495;-41
2022/04/08 06:35:08;;;;;;;6.18;1.65;;;5.70;99.90;;;;;;5039537;28;20044;-42
2022/04/08 06:37:35;;;;;;;7.28;1.98;;;6.30;99.90;;;;;;5020947;28;20591;-42
2022/04/08 06:40:09;;;;;;;4.85;1.77;;;7.70;99.90;;;;;;5032606;28;20047;-41
2022/04/08 06:42:35;;;;;;;;;;;8.30;99.90;;;;;;5013013;28;20110;-41
2022/04/08 06:45:01;;;;;;;5.95;1.73;;;8.30;99.90;;;;;;5008113;28;19925;-43
2022/04/08 06:47:27;;;;;;;6.63;1.98;;;8.10;99.90;;;;;;5026998;28;20041;-41
2022/04/08 06:49:53;;;;;;;4.40;1.80;;;8.00;99.90;;;;;;5024303;28;20129;-41
2022/04/08 06:52:19;;;;;;;8.10;2.28;;;7.90;99.90;;;;;;5026239;28;20050;-42
2022/04/08 06:54:44;;;;;;;6.03;2.00;;;7.90;99.90;;;;;;5009684;28;20045;-41
2022/04/08 06:57:10;;;;;;;6.70;1.98;;;7.60;99.90;;;;;;5028095;28;20045;-41
2022/04/08 06:59:36;;;;;;;9.00;2.50;;;7.20;99.90;;;;;;5024560;28;20033;-42
2022/04/08 07:02:03;;;;;;;12.10;2.70;;;7.20;99.90;;;;;;5031036;28;20438;-41
2022/04/08 07:04:29;;;;;;;9.07;2.53;;;7.90;99.90;;;;;;5019336;28;20049;-43
2022/04/08 07:06:56;;;;;;;5.70;1.90;;;9.40;99.90;;;;;;5030483;28;20052;-43
2022/04/08 07:09:29;;;;;;;11.68;2.83;;;9.80;99.90;;;;;;5028593;28;20045;-43
2022/04/08 07:11:54;;;;;;;8.88;1.77;;;9.00;99.90;;;;;;5010045;28;20049;-42
2022/04/08 07:14:20;;;;;;;7.55;1.70;;;8.20;99.90;;;;;;5024323;28;20657;-42
2022/04/08 07:16:47;;;;;;;6.35;1.50;;;7.30;99.90;;;;;;5025052;28;20081;-42
2022/04/08 07:19:13;;;;;;;5.40;1.58;;;6.80;99.90;;;;;;5018082;28;20051;-41
2022/04/08 07:21:39;;;;;;;7.32;1.42;;;6.60;99.90;;;;;;5035990;28;20386;-42
2022/04/08 07:24:05;;;;;;;4.35;1.50;;;6.50;99.90;;;;;;5037589;28;20187;-41
2022/04/08 07:26:31;;;;;;;5.30;1.67;;;6.90;99.90;;;;;;5033637;28;20396;-42
2022/04/08 07:28:57;;;;;;;7.70;1.92;;;7.40;99.90;;;;;;5036842;28;20048;-41
2022/04/08 07:31:22;;;;;;;7.03;2.05;;;7.80;99.90;;;;;;5033146;28;20080;-42
2022/04/08 07:33:48;;;;;;;7.40;1.75;;;8.20;99.90;;;;;;5028062;28;20459;-41
2022/04/08 07:36:15;;;;;;;3.20;1.85;;;8.60;99.90;;;;;;5031545;28;20501;-42
2022/04/08 07:38:41;;;;;;;5.55;1.80;;;8.80;99.90;;;;;;5028161;28;20132;-42
2022/04/08 07:41:06;;;;;;;5.75;2.15;;;8.90;99.90;;;;;;5027408;28;20075;-42
2022/04/08 07:43:32;;;;;;;3.50;1.83;;;8.70;99.90;;;;;;5016267;28;20591;-42
2022/04/08 07:45:58;;;;;;;2.85;1.83;;;8.70;99.90;;;;;;5019462;28;20312;-42
2022/04/08 07:48:24;;;;;;;5.18;2.00;;;8.70;99.90;;;;;;5034331;28;20041;-42
2022/04/08 07:50:49;;;;;;;4.75;2.03;;;8.90;99.90;;;;;;5027524;28;20092;-41
2022/04/08 07:53:15;;;;;;;4.50;1.52;;;9.10;99.90;;;;;;5034276;28;20099;-42
2022/04/08 07:55:41;;;;;;;5.85;1.55;;;9.40;99.90;;;;;;5038437;28;20412;-42
2022/04/08 07:58:07;;;;;;;4.70;1.65;;;9.30;99.90;;;;;;5012370;28;20053;-43
2022/04/08 08:00:34;;;;;;;3.85;1.33;;;9.20;99.90;;;;;;5004584;28;20207;-42
2022/04/08 08:03:00;;;;;;;5.32;1.55;;;9.00;99.90;;;;;;5034778;28;20060;-41
2022/04/08 08:05:27;;;;;;;4.28;1.80;;;9.10;99.90;;;;;;5037232;28;20080;-42
2022/04/08 08:07:58;;;;;;;5.78;1.70;;;9.40;99.90;;;;;;5016966;28;20134;-42
2022/04/08 08:10:25;;;;;;;5.80;1.35;;;9.60;99.90;;;;;;5035993;28;20053;-41
2022/04/08 08:12:52;;;;;;;7.68;1.70;;;10.00;99.90;;;;;;5040943;28;20045;-42
2022/04/08 08:15:18;;;;;;;7.72;1.95;;;10.00;99.90;;;;;;5029459;28;20451;-42
2022/04/08 08:17:45;;;;;;;5.93;2.47;;;9.90;99.90;;;;;;5035961;28;20647;-41
2022/04/08 08:20:13;;;;;;;9.50;2.38;;;9.70;99.90;;;;;;5006959;28;20095;-44
2022/04/08 08:22:39;;;;;;;7.85;1.98;;;9.50;99.90;;;;;;5013537;28;20412;-42
2022/04/08 08:25:06;;;;;;;5.63;1.88;;;9.40;99.90;;;;;;5037401;28;20060;-43
2022/04/08 08:27:38;;;;;;;6.53;1.75;;;9.30;99.90;;;;;;5040963;28;20040;-42
2022/04/08 08:30:06;;;;;;;9.02;2.20;;;9.00;99.90;;;;;;5028244;28;20049;-42
2022/04/08 08:32:32;;;;;;;8.23;2.50;;;8.80;99.90;;;;;;5003276;28;20499;-41
2022/04/08 08:34:58;;;;;;;7.18;2.92;;;8.60;99.90;;;;;;5018245;28;20701;-43
2022/04/08 08:37:24;;;;;;;10.00;2.92;;;8.50;99.90;;;;;;5030365;28;20459;-42
2022/04/08 08:39:52;;;;;;;11.95;2.92;;;8.40;99.90;;;;;;5032179;28;20586;-42
2022/04/08 08:42:18;;;;;;;11.73;2.75;;;8.60;99.90;;;;;;5021382;28;20099;-43
2022/04/08 08:44:44;;;;;;;11.15;3.03;;;8.60;99.90;;;;;;5038268;28;20048;-42
2022/04/08 08:47:16;;;;;;;11.15;3.10;;;8.60;99.90;;;;;;5028302;28;20562;-41
2022/04/08 08:49:47;;;;;;;9.00;3.00;;;8.60;99.90;;;;;;5022629;28;20454;-42
2022/04/08 08:52:14;;;;;;;13.82;2.53;;;9.00;99.90;;;;;;5030949;28;20510;-42
2022/04/08 08:54:43;;;;;;;10.25;2.97;;;9.40;99.90;;;;;;5011837;28;20573;-42
2022/04/08 08:57:10;;;;;;;9.15;2.20;;;9.80;99.90;;;;;;5029069;28;20419;-42
2022/04/08 08:59:37;;;;;;;12.13;2.92;;;10.00;99.90;;;;;;5026139;28;20045;-42
2022/04/08 09:02:03;;;;;;;9.30;2.90;;;10.00;99.90;;;;;;5027514;28;20057;-41
2022/04/08 09:04:30;;;;;;;9.00;3.13;;;10.10;99.90;;;;;;5041546;28;20211;-41
2022/04/08 09:06:56;;;;;;;13.68;2.75;;;10.20;99.90;;;;;;5039834;28;20041;-42
2022/04/08 09:09:30;;;;;;;9.43;2.47;;;10.50;99.90;;;;;;5023505;28;20049;-42
2022/04/08 09:12:16;;;;;;;11.30;2.90;;;10.70;99.90;;;;;;5003389;28;20115;-42
2022/04/08 09:14:56;;;;;;;6.90;2.20;;;10.80;99.90;;;;;;5029974;28;20080;-43
2022/04/08 09:17:24;;;;;;;7.68;2.50;;;10.80;99.90;;;;;;5026203;28;20059;-42
2022/04/08 09:19:54;;;;;;;8.20;2.28;;;11.00;99.90;;;;;;5039259;28;20049;-43
2022/04/08 09:22:24;;;;;;;7.88;2.15;;;11.10;99.90;;;;;;5036510;28;20126;-43
2022/04/08 09:24:50;;;;;;;15.18;3.28;;;11.20;99.90;;;;;;4991093;28;20168;-43
2022/04/08 09:27:16;;;;;;;9.48;1.95;;;11.20;99.90;;;;;;5020629;28;20049;-42
2022/04/08 09:29:47;;;;;;;14.20;3.08;;;11.30;99.90;;;;;;5033957;28;20059;-43
2022/04/08 09:32:15;;;;;;;9.68;2.63;;;11.50;99.90;;;;;;5027951;28;20040;-42
2022/04/08 09:34:42;;;;;;;11.57;2.70;;;11.50;99.90;;;;;;5036256;28;20131;-46
2022/04/08 09:37:12;;;;;;;14.05;2.45;;;11.60;99.90;;;;;;5040600;28;20384;-45
2022/04/08 09:39:58;;;;;;;12.52;2.33;;;11.40;99.90;;;;;;5039982;28;20075;-43
2022/04/08 09:42:40;;;;;;;7.47;2.08;;;11.30;99.90;;;;;;5038916;28;20056;-42
2022/04/08 09:45:06;;;;;;;7.63;2.00;;;11.10;99.90;;;;;;5039202;28;20500;-43
2022/04/08 09:47:32;;;;;;;8.15;1.60;;;10.60;99.90;;;;;;5026642;28;20598;-43
2022/04/08 09:49:57;;;;;;;4.28;1.50;;;10.20;99.90;;;;;;5038642;28;20049;-43
2022/04/08 09:52:26;;;;;;;5.38;1.50;;;10.00;99.90;;;;;;5025130;28;20196;-42
2022/04/08 09:54:53;;;;;;;6.25;2.45;;;9.80;99.90;;;;;;5032376;28;20567;-42
2022/04/08 09:57:19;;;;;;;6.05;1.90;;;9.80;99.90;;;;;;5033604;28;20051;-44
2022/04/08 09:59:55;;;;;;;5.20;1.95;;;9.70;99.90;;;;;;5026104;28;20333;-44
2022/04/08 10:02:24;;;;;;;5.68;1.83;;;9.70;99.90;;;;;;5024874;28;20045;-42
2022/04/08 10:04:52;;;;;;;6.55;1.45;;;9.60;99.90;;;;;;5040411;28;20056;-43
2022/04/08 10:07:19;;;;;;;7.32;1.98;;;9.50;99.90;;;;;;5022369;28;20041;-43
2022/04/08 10:09:55;;;;;;;6.40;1.90;;;9.60;99.90;;;;;;5000066;28;20663;-42
2022/04/08 10:12:53;;;;;;;5.90;2.45;;;9.80;99.90;;;;;;5033298;28;20082;-42
2022/04/08 10:15:35;;;;;;;9.15;2.33;;;9.70;99.90;;;;;;4958246;28;20681;-43
2022/04/08 10:18:06;;;;;;;7.38;1.88;;;9.90;99.90;;;;;;4968141;28;20141;-43
2022/04/08 10:20:36;;;;;;;6.93;1.60;;;10.10;99.90;;;;;;4969796;28;20415;-44
2022/04/08 10:23:10;;;;;;;7.30;1.38;;;10.20;99.90;;;;;;4957170;28;20050;-43
2022/04/08 10:25:42;;;;;;;6.72;1.60;;;10.30;99.90;;;;;;4976309;28;20054;-43
2022/04/08 10:28:10;;;;;;;4.25;1.60;;;10.40;99.90;;;;;;4974450;28;20104;-43
2022/04/08 10:30:49;;;;;;;5.13;1.45;;;10.50;99.90;;;;;;4957555;28;20606;-42
2022/04/08 10:33:29;;;;;;;4.20;1.65;;;10.50;99.90;;;;;;4958038;28;20063;-44
2022/04/08 10:35:59;;;;;;;3.70;1.30;;;10.70;99.90;;;;;;4958482;28;20317;-43
2022/04/08 10:38:35;;;;;;;4.90;1.50;;;10.80;99.90;;;;;;4972003;28;20129;-44
2022/04/08 10:41:01;;;;;;;5.68;1.50;;;10.90;99.90;;;;;;4966402;28;20545;-43
2022/04/08 10:43:27;;;;;;;5.57;1.88;;;11.00;99.90;;;;;;4969357;28;20047;-43
2022/04/08 10:45:56;;;;;;;6.20;1.55;;;11.10;99.90;;;;;;4972508;28;20505;-44
2022/04/08 10:48:32;;;;;;;7.25;2.10;;;11.00;99.90;;;;;;4954606;28;20183;-44
2022/04/08 10:51:13;;;;;;;4.47;1.55;;;11.00;99.90;;;;;;4964279;28;20052;-44
2022/04/08 10:53:41;;;;;;;5.90;1.23;;;10.90;99.90;;;;;;5031586;28;20067;-43
2022/04/08 10:56:10;;;;;;;5.13;1.23;;;10.80;99.90;;;;;;5020530;28;20087;-43
2022/04/08 10:58:41;;;;;;;5.90;1.88;;;10.60;99.90;;;;;;5021384;28;20056;-42
2022/04/08 11:01:43;;;;;;;4.50;1.15;;;10.60;99.90;;;;;;5015351;28;20059;-43
2022/04/08 11:04:09;;;;;;;4.97;1.38;;;10.60;99.90;;;;;;5020567;28;21101;-45
2022/04/08 11:06:36;;;;;;;6.85;1.88;;;10.50;99.90;;;;;;5030032;28;20185;-44
2022/04/08 11:09:10;;;;;;;7.45;1.75;;;10.40;99.90;;;;;;5005306;28;20140;-43
2022/04/08 11:11:38;;;;;;;7.20;1.60;;;10.30;99.90;;;;;;5004559;28;20072;-42
2022/04/08 11:14:06;;;;;;;6.63;1.92;;;10.50;99.90;;;;;;5004742;28;20057;-43
2022/04/08 11:16:37;;;;;;;5.32;1.60;;;10.50;99.90;;;;;;5023153;28;20053;-44
2022/04/08 11:19:10;;;;;;;6.28;1.50;;;10.40;99.90;;;;;;5033730;28;20513;-42
2022/04/08 11:21:37;;;;;;;5.43;1.30;;;10.60;99.90;;;;;;5022045;28;20053;-43
2022/04/08 11:24:05;;;;;;;6.20;1.70;;;10.80;99.90;;;;;;5034820;28;20045;-43
2022/04/08 11:26:44;;;;;;;5.57;1.60;;;11.00;99.90;;;;;;5021701;28;20049;-43
2022/04/08 11:29:22;;;;;;;7.13;1.48;;;10.80;99.90;;;;;;5022588;28;20043;-43
2022/04/08 11:31:50;;;;;;;4.55;1.73;;;10.80;99.90;;;;;;5034869;28;20052;-44
2022/04/08 11:34:16;;;;;;;4.75;1.50;;;10.80;99.90;;;;;;5022402;28;20058;-44
2022/04/08 11:36:43;;;;;;;5.03;1.60;;;11.00;99.90;;;;;;5026767;28;20049;-43
2022/04/08 11:39:09;;;;;;;5.55;1.42;;;11.10;99.90;;;;;;5040140;28;20503;-47
2022/04/08 11:41:37;;;;;;;8.00;2.00;;;11.10;99.90;;;;;;5022523;28;20076;-43
2022/04/08 11:44:04;;;;;;;4.45;1.98;;;11.10;99.90;;;;;;5003596;28;20404;-44
2022/04/08 11:46:30;;;;;;;8.18;2.22;;;10.90;99.90;;;;;;5026475;28;20049;-43
2022/04/08 11:48:56;;;;;;;4.78;1.42;;;10.80;99.90;;;;;;5041468;28;20101;-42
2022/04/08 11:51:22;;;;;;;6.15;1.55;;;10.80;99.90;;;;;;5015867;28;20162;-44
2022/04/08 11:53:50;;;;;;;4.90;1.70;;;11.00;99.90;;;;;;5029517;28;20136;-42
2022/04/08 11:56:25;;;;;;;5.50;1.95;;;11.00;99.90;;;;;;5023126;28;20115;-42
2022/04/08 11:58:55;;;;;;;4.88;1.70;;;11.20;99.90;;;;;;5025116;28;20045;-43
2022/04/08 12:01:21;;;;;;;4.65;1.40;;;11.30;99.90;;;;;;5027291;28;20068;-43
2022/04/08 12:03:51;;;;;;;3.58;1.23;;;11.00;99.90;;;;;;5003996;28;20045;-42
2022/04/08 12:06:18;;;;;;;3.45;1.25;;;10.90;99.90;;;;;;5031542;28;20041;-43
2022/04/08 12:08:46;;;;;;;3.80;1.40;;;10.60;99.90;;;;;;5022417;28;20045;-42
2022/04/08 12:11:12;;;;;;;6.00;1.20;;;10.40;99.90;;;;;;5020838;28;20360;-44
2022/04/08 12:13:42;;;;;;;7.25;1.20;;;10.20;99.90;;;;;;5003389;28;20496;-43
2022/04/08 12:16:10;;;;;;;4.60;1.20;;;10.00;99.90;;;;;;5021431;28;20049;-42
2022/04/08 12:18:46;;;;;;;3.45;1.35;;;9.80;99.90;;;;;;5022346;28;20513;-43
2022/04/08 12:21:12;;;;;;;5.07;1.77;;;9.60;99.90;;;;;;5011637;28;20081;-43
2022/04/08 12:23:40;;;;;;;4.95;1.20;;;9.50;99.90;;;;;;5025757;28;20128;-44
2022/04/08 12:26:11;;;;;;;7.50;1.38;;;9.40;99.90;;;;;;5029992;28;20499;-43
2022/04/08 12:28:37;;;;;;;7.88;2.05;;;9.40;99.90;;;;;;5032315;28;20045;-44
2022/04/08 12:31:18;;;;;;;4.45;1.63;;;9.40;99.90;;;;;;5019794;28;20059;-43
2022/04/08 12:33:44;;;;;;;6.95;1.58;;;9.50;99.90;;;;;;5022194;28;20053;-42
2022/04/08 12:36:11;;;;;;;6.97;2.03;;;9.70;99.90;;;;;;5033338;28;20052;-43
2022/04/08 12:38:42;;;;;;;6.25;1.45;;;9.90;99.90;;;;;;5020217;28;20050;-42
2022/04/08 12:41:10;;;;;;;7.32;2.05;;;10.10;99.90;;;;;;5032832;28;20120;-43
2022/04/08 12:43:36;;;;;;;5.50;1.98;;;10.30;99.90;;;;;;5028928;28;20053;-43
2022/04/08 12:46:01;;;;;;;6.47;2.00;;;10.40;99.90;;;;;;5008735;28;20057;-43
2022/04/08 12:48:27;;;;;;;5.00;2.10;;;10.50;99.90;;;;;;5038553;28;20049;-43
2022/04/08 12:50:55;;;;;;;8.40;2.00;;;10.50;99.90;;;;;;5025453;28;20079;-43
2022/04/08 12:53:29;;;;;;;8.52;2.58;;;10.70;99.90;;;;;;5027794;28;20170;-43
2022/04/08 12:55:56;;;;;;;6.65;1.80;;;10.90;99.90;;;;;;5007445;28;20056;-43